aviador You're here:

KFRM Decoded Metar

FAIRMONT MUNI in MN, USA
Report Time2018-05-23 15:56:00
UTC Time2018-05-23 16:42:41
Flight Rules vfr VFR
Wind170° at 15 kt
W.Decomp.*RWY 20: 12.4 kt HW 8.4 kt LCW
RWY 13: 12.1 kt HW 8.8 kt RCW
W.Rank170° ranks 2
Current wind is above 170° avg. (10.9)
Visibility9999 m
Phenomena:N/A
Clouds:N/A
Expected CloudBase > 2,000 ft AGL from Temp-Dew spread
CeilingNone
Temp23°C (ISA +10)
Dew Point18°C (74% RH)
AAT20.4°C
QNH1019 hPa
Density Alt2,434 ft
Elevation1,161 ft
Report Wrong Elevation
Raw Report
KFRM 231556Z AUTO 17015KT 10SM CLR 23/18 A3010 RMK AO2 SLP191
T02280178=

Extra information for KFRM:More info

Metar Taf Metar & Taf Last 4 Metars F.Rules Stats Wind Profile Meteogram Temp Stats Airport Information Weather charts Add Link Nearby VenuesMetar ALERT Operation Metar Decoded Social comments

AIRNAV info for KFRM